createdAt,value
2023-01-12T00:00:19.637Z,12.55
2023-01-12T00:05:25.226Z,13.65
2023-01-12T00:10:29.619Z,10.98
2023-01-12T00:15:58.554Z,15.90
2023-01-12T00:21:04.902Z,10.85
2023-01-12T00:26:09.477Z,11.32
2023-01-12T00:36:20.483Z,11.20
2023-01-12T00:41:38.529Z,10.63
2023-01-12T00:46:43.300Z,10.50
2023-01-12T00:56:54.041Z,9.82
2023-01-12T01:01:58.908Z,10.75
2023-01-12T01:07:05.607Z,8.75
2023-01-12T01:12:10.232Z,12.00
2023-01-12T01:17:14.778Z,11.52
2023-01-12T01:22:20.343Z,12.05
2023-01-12T01:27:24.936Z,13.00
2023-01-12T01:32:30.083Z,10.68
2023-01-12T01:37:35.637Z,10.02
2023-01-12T01:42:41.456Z,11.43
2023-01-12T01:47:51.904Z,10.35
2023-01-12T01:53:01.217Z,11.65
2023-01-12T01:58:11.420Z,12.93
2023-01-12T02:03:17.862Z,9.95
2023-01-12T02:08:36.186Z,10.80
2023-01-12T02:13:58.307Z,14.43
2023-01-12T02:19:45.252Z,10.55
2023-01-12T02:25:37.295Z,13.43
2023-01-12T02:31:27.091Z,12.63
2023-01-12T02:36:42.012Z,12.23
2023-01-12T02:47:22.156Z,12.57
2023-01-12T02:52:32.326Z,12.77
2023-01-12T02:57:38.719Z,11.35
2023-01-12T03:02:44.505Z,10.70
2023-01-12T03:07:53.342Z,11.35
2023-01-12T03:13:00.749Z,11.13
2023-01-12T03:18:14.464Z,10.05
2023-01-12T03:23:24.605Z,10.23
2023-01-12T03:28:36.760Z,9.52
2023-01-12T03:33:45.070Z,11.68
2023-01-12T03:39:02.534Z,14.43
2023-01-12T03:44:18.817Z,11.55
2023-01-12T03:49:34.368Z,13.68
2023-01-12T03:54:40.755Z,12.18
2023-01-12T03:59:45.531Z,13.40
2023-01-12T04:04:51.845Z,14.02
2023-01-12T04:09:57.141Z,14.18
2023-01-12T04:15:01.586Z,13.70
2023-01-12T04:20:09.593Z,14.27
2023-01-12T04:25:16.550Z,15.65
2023-01-12T04:30:24.595Z,13.95
2023-01-12T04:35:30.412Z,13.18
2023-01-12T04:40:35.288Z,14.70
2023-01-12T04:50:50.392Z,18.10
2023-01-12T04:55:54.597Z,15.90
2023-01-12T05:00:58.895Z,17.83
2023-01-12T05:06:05.958Z,18.73
2023-01-12T05:11:10.142Z,20.75
2023-01-12T05:16:17.752Z,17.98
2023-01-12T05:21:25.133Z,16.23
2023-01-12T05:26:29.559Z,17.40
2023-01-12T05:31:36.258Z,17.67
2023-01-12T05:36:42.285Z,23.58
2023-01-12T05:42:01.574Z,22.58
2023-01-12T05:47:05.904Z,18.98
2023-01-12T05:57:16.619Z,21.77
2023-01-12T06:07:27.613Z,21.20
2023-01-12T06:12:49.463Z,16.95
2023-01-12T06:17:53.922Z,19.52
2023-01-12T06:23:02.657Z,27.42
2023-01-12T06:28:07.500Z,25.10
2023-01-12T06:38:18.947Z,23.00
2023-01-12T06:43:24.771Z,23.95
2023-01-12T06:48:39.184Z,51.08
2023-01-12T06:53:45.332Z,50.28
2023-01-12T06:58:50.117Z,37.40
2023-01-12T07:03:54.484Z,28.30
2023-01-12T07:09:00.443Z,27.70
2023-01-12T07:14:05.336Z,28.05
2023-01-12T07:19:10.056Z,27.23
2023-01-12T07:24:15.884Z,24.95
2023-01-12T07:29:20.094Z,21.48
2023-01-12T07:34:24.805Z,19.05
2023-01-12T07:39:30.606Z,22.08
2023-01-12T07:44:35.253Z,23.98
2023-01-12T07:49:39.521Z,25.70
2023-01-12T07:54:45.300Z,27.23
2023-01-12T07:59:49.946Z,22.70
2023-01-12T08:04:55.273Z,23.48
2023-01-12T08:10:00.885Z,25.83
2023-01-12T08:15:05.887Z,31.45
2023-01-12T08:20:19.345Z,29.27
2023-01-12T08:25:30.619Z,25.10
2023-01-12T08:30:35.955Z,27.17
2023-01-12T08:35:40.979Z,23.05
2023-01-12T08:41:04.263Z,27.13
2023-01-12T08:46:08.973Z,23.33
2023-01-12T08:51:13.689Z,25.92
2023-01-12T08:56:19.411Z,19.67
2023-01-12T09:01:23.748Z,20.65
2023-01-12T09:06:31.780Z,22.25
2023-01-12T09:11:39.113Z,21.63
2023-01-12T09:16:44.460Z,19.85
2023-01-12T09:21:48.674Z,18.75
2023-01-12T09:26:54.659Z,21.10
2023-01-12T09:31:59.338Z,17.83
2023-01-12T09:42:37.343Z,17.65
2023-01-12T09:47:53.449Z,18.17
2023-01-12T09:53:03.808Z,15.02
2023-01-12T09:58:29.436Z,19.65
2023-01-12T10:03:38.862Z,19.70
2023-01-12T10:08:48.768Z,21.25
2023-01-12T10:14:31.091Z,16.80
2023-01-12T10:19:47.900Z,19.75
2023-01-12T10:24:54.421Z,23.83
2023-01-12T10:30:02.844Z,21.17
2023-01-12T10:35:16.427Z,21.48
2023-01-12T10:40:31.255Z,17.92
2023-01-12T10:50:42.863Z,20.80
2023-01-12T11:00:54.053Z,16.15
2023-01-12T11:06:23.780Z,15.23
2023-01-12T11:11:34.326Z,14.38
2023-01-12T11:16:48.536Z,18.02
2023-01-12T11:21:58.747Z,14.52
2023-01-12T11:27:12.103Z,15.00
2023-01-12T11:32:28.162Z,17.67
2023-01-12T11:37:35.247Z,15.60
2023-01-12T11:42:57.785Z,17.83
2023-01-12T11:48:18.311Z,18.48
2023-01-12T11:53:25.644Z,13.18
2023-01-12T11:58:39.382Z,11.63
2023-01-12T12:04:04.366Z,13.10
2023-01-12T12:09:38.879Z,15.50
2023-01-12T12:14:59.660Z,14.57
2023-01-12T12:20:19.118Z,13.20
2023-01-12T12:25:33.834Z,15.23
2023-01-12T12:31:02.003Z,13.60
2023-01-12T12:36:24.329Z,14.05
2023-01-12T12:41:57.833Z,15.60
2023-01-12T12:47:11.947Z,11.05
2023-01-12T12:52:18.141Z,12.43
2023-01-12T12:57:23.198Z,12.02
2023-01-12T13:02:56.506Z,9.55
2023-01-12T13:08:02.363Z,12.55
2023-01-12T13:13:32.531Z,14.50
2023-01-12T13:19:08.253Z,14.82
2023-01-12T13:29:45.821Z,11.68
2023-01-12T13:34:50.598Z,16.20
2023-01-12T13:40:03.661Z,14.10
2023-01-12T13:45:12.702Z,13.63
2023-01-12T13:50:22.195Z,15.50
2023-01-12T13:55:30.919Z,13.75
2023-01-12T14:00:35.794Z,12.57
2023-01-12T14:06:04.422Z,12.93
2023-01-12T14:11:30.282Z,17.58
2023-01-12T14:17:04.760Z,18.88
2023-01-12T14:27:27.593Z,15.82
2023-01-12T14:32:33.159Z,13.52
2023-01-12T14:37:39.196Z,13.60
2023-01-12T14:43:04.103Z,15.65
2023-01-12T14:48:23.582Z,13.18
2023-01-12T14:53:35.427Z,15.90
2023-01-12T14:58:41.258Z,14.32
2023-01-12T15:03:48.560Z,11.48
2023-01-12T15:09:00.468Z,15.13
2023-01-12T15:14:21.779Z,12.45
2023-01-12T15:19:43.545Z,14.13
2023-01-12T15:25:05.411Z,12.45
2023-01-12T15:30:13.518Z,15.57
2023-01-12T15:35:23.565Z,16.50
2023-01-12T15:40:29.961Z,21.58
2023-01-12T15:45:40.127Z,22.27
2023-01-12T15:50:46.615Z,21.33
2023-01-12T15:55:51.499Z,25.63
2023-01-12T16:00:57.210Z,25.38
2023-01-12T16:06:01.604Z,19.15
2023-01-12T16:11:13.610Z,20.30
2023-01-12T16:16:21.548Z,14.93
2023-01-12T16:21:27.261Z,20.52
2023-01-12T16:26:32.372Z,22.45
2023-01-12T16:31:39.468Z,24.42
2023-01-12T16:36:44.044Z,22.13
2023-01-12T16:41:49.133Z,24.00
2023-01-12T16:46:54.971Z,17.58
2023-01-12T16:51:59.809Z,15.98
2023-01-12T16:57:04.853Z,13.23
2023-01-12T17:02:14.746Z,14.90
2023-01-12T17:07:19.876Z,20.30
2023-01-12T17:12:24.143Z,14.45
2023-01-12T17:17:30.247Z,16.10
2023-01-12T17:22:35.056Z,14.13
2023-01-12T17:27:39.734Z,13.77
2023-01-12T17:32:45.412Z,15.70
2023-01-12T17:37:50.332Z,15.07
2023-01-12T17:43:03.524Z,18.90
2023-01-12T17:48:09.238Z,17.52
2023-01-12T17:53:14.655Z,14.70
2023-01-12T17:58:19.226Z,19.38
2023-01-12T18:03:25.541Z,16.60
2023-01-12T18:08:30.126Z,22.00
2023-01-12T18:13:37.073Z,25.58
2023-01-12T18:18:44.318Z,18.92
2023-01-12T18:23:49.426Z,17.40
2023-01-12T18:28:54.710Z,16.23
2023-01-12T18:34:04.693Z,17.83
2023-01-12T18:39:13.728Z,16.33
2023-01-12T18:44:18.670Z,14.32
2023-01-12T18:49:26.545Z,15.63
2023-01-12T18:54:31.119Z,21.60
2023-01-12T18:59:35.494Z,16.77
2023-01-12T19:10:02.754Z,17.40
2023-01-12T19:15:27.729Z,16.40
2023-01-12T19:20:36.555Z,22.50
2023-01-12T19:25:58.730Z,27.33
2023-01-12T19:31:05.126Z,25.90
2023-01-12T19:36:15.987Z,23.83
2023-01-12T19:41:34.499Z,22.55
2023-01-12T19:46:39.075Z,22.70
2023-01-12T19:51:46.206Z,21.70
2023-01-12T19:56:50.435Z,18.58
2023-01-12T20:01:55.128Z,21.42
2023-01-12T20:07:00.749Z,22.90
2023-01-12T20:12:06.548Z,18.95
2023-01-12T20:17:11.413Z,22.02
2023-01-12T20:22:17.221Z,17.90
2023-01-12T20:27:21.788Z,18.27
2023-01-12T20:37:33.835Z,23.30
2023-01-12T20:42:38.770Z,19.23
2023-01-12T20:47:43.433Z,19.55
2023-01-12T20:52:50.965Z,21.67
2023-01-12T20:57:55.754Z,20.13
2023-01-12T21:03:00.304Z,17.77
2023-01-12T21:08:08.364Z,18.90
2023-01-12T21:13:13.225Z,20.10
2023-01-12T21:18:17.721Z,18.00
2023-01-12T21:23:24.438Z,19.90
2023-01-12T21:28:30.408Z,14.55
2023-01-12T21:33:35.936Z,12.68
2023-01-12T21:38:41.752Z,15.98
2023-01-12T21:43:50.216Z,12.55
2023-01-12T21:48:54.600Z,18.98
2023-01-12T21:54:00.451Z,15.70
2023-01-12T21:59:04.892Z,13.23
2023-01-12T22:04:09.481Z,12.40
2023-01-12T22:09:15.341Z,15.63
2023-01-12T22:14:19.963Z,21.08
2023-01-12T22:19:24.405Z,13.05
2023-01-12T22:24:30.170Z,14.52
2023-01-12T22:29:34.347Z,17.60
2023-01-12T22:34:39.153Z,15.85
2023-01-12T22:39:44.951Z,14.57
2023-01-12T22:44:50.311Z,9.60
2023-01-12T22:49:54.909Z,11.80
2023-01-12T23:00:07.048Z,13.98
2023-01-12T23:05:11.641Z,10.38
2023-01-12T23:10:17.995Z,12.88
2023-01-12T23:15:23.039Z,14.55
2023-01-12T23:20:27.697Z,11.95
2023-01-12T23:25:35.813Z,9.98
2023-01-12T23:30:40.011Z,8.75
2023-01-12T23:35:44.626Z,8.10
2023-01-12T23:40:51.292Z,8.95
2023-01-12T23:45:55.947Z,8.55
2023-01-12T23:51:00.533Z,8.20
2023-01-12T23:56:09.548Z,7.70
